createdAt,value
2024-02-19T00:00:30.086Z,2.40
2024-02-19T00:02:32.807Z,2.75
2024-02-19T00:04:35.527Z,2.60
2024-02-19T00:06:37.744Z,2.45
2024-02-19T00:08:42.180Z,3.40
2024-02-19T00:10:44.827Z,2.80
2024-02-19T00:12:49.406Z,3.13
2024-02-19T00:14:52.186Z,2.78
2024-02-19T00:16:54.837Z,2.45
2024-02-19T00:18:57.690Z,2.65
2024-02-19T00:21:00.431Z,2.22
2024-02-19T00:23:03.532Z,2.55
2024-02-19T00:25:07.920Z,2.67
2024-02-19T00:27:10.759Z,3.47
2024-02-19T00:29:13.627Z,2.67
2024-02-19T00:31:17.439Z,2.40
2024-02-19T00:33:19.265Z,3.03
2024-02-19T00:35:22.428Z,2.58
2024-02-19T00:37:25.414Z,2.97
2024-02-19T00:39:28.053Z,2.78
2024-02-19T00:41:32.186Z,2.80
2024-02-19T00:43:34.827Z,3.03
2024-02-19T00:45:37.454Z,2.42
2024-02-19T00:47:40.353Z,2.65
2024-02-19T00:49:43.101Z,3.55
2024-02-19T00:51:45.756Z,2.47
2024-02-19T00:53:48.383Z,3.55
2024-02-19T00:55:53.546Z,2.65
2024-02-19T00:57:57.974Z,3.13
2024-02-19T01:00:00.874Z,3.00
2024-02-19T01:02:04.380Z,2.60
2024-02-19T01:04:07.721Z,3.78
2024-02-19T01:06:10.334Z,3.50
2024-02-19T01:08:13.140Z,2.97
2024-02-19T01:10:15.945Z,3.47
2024-02-19T01:12:18.786Z,3.60
2024-02-19T01:14:22.760Z,4.03
2024-02-19T01:16:25.474Z,3.03
2024-02-19T01:18:28.206Z,3.45
2024-02-19T01:20:30.986Z,4.40
2024-02-19T01:22:32.617Z,3.95
2024-02-19T01:24:35.373Z,3.05
2024-02-19T01:26:37.950Z,2.97
2024-02-19T01:28:40.092Z,3.55
2024-02-19T01:30:45.646Z,3.50
2024-02-19T01:32:48.353Z,3.58
2024-02-19T01:34:51.113Z,3.53
2024-02-19T01:36:53.823Z,3.03
2024-02-19T01:38:55.697Z,3.38
2024-02-19T01:40:58.244Z,2.85
2024-02-19T01:43:02.340Z,3.67
2024-02-19T01:45:06.759Z,3.63
2024-02-19T01:47:11.175Z,4.40
2024-02-19T01:49:13.984Z,3.97
2024-02-19T01:51:18.184Z,3.58
2024-02-19T01:53:20.929Z,3.40
2024-02-19T01:55:23.445Z,3.35
2024-02-19T01:57:26.360Z,3.80
2024-02-19T01:59:28.783Z,3.75
2024-02-19T02:01:31.954Z,3.67
2024-02-19T02:03:36.100Z,2.83
2024-02-19T02:05:38.758Z,4.53
2024-02-19T02:07:41.911Z,2.97
2024-02-19T02:09:45.456Z,3.92
2024-02-19T02:11:48.191Z,4.22
2024-02-19T02:13:50.848Z,3.22
2024-02-19T02:15:53.516Z,3.28
2024-02-19T02:17:56.420Z,3.05
2024-02-19T02:20:00.726Z,3.97
2024-02-19T02:22:03.466Z,3.40
2024-02-19T02:24:06.248Z,3.92
2024-02-19T02:26:08.936Z,3.95
2024-02-19T02:28:12.984Z,3.17
2024-02-19T02:30:15.882Z,2.60
2024-02-19T02:32:18.659Z,3.35
2024-02-19T02:34:21.406Z,2.63
2024-02-19T02:36:24.032Z,3.22
2024-02-19T02:38:25.664Z,3.92
2024-02-19T02:40:28.436Z,3.40
2024-02-19T02:42:31.766Z,2.88
2024-02-19T02:44:35.767Z,3.17
2024-02-19T02:46:38.429Z,2.92
2024-02-19T02:48:41.177Z,3.45
2024-02-19T02:50:44.325Z,2.97
2024-02-19T02:52:48.333Z,4.07
2024-02-19T02:54:51.098Z,3.00
2024-02-19T02:56:53.712Z,3.13
2024-02-19T02:58:55.316Z,4.00
2024-02-19T03:00:59.369Z,3.45
2024-02-19T03:03:01.084Z,2.38
2024-02-19T03:05:03.868Z,3.40
2024-02-19T03:07:06.661Z,4.20
2024-02-19T03:09:09.396Z,3.45
2024-02-19T03:11:12.209Z,3.65
2024-02-19T03:13:14.983Z,3.05
2024-02-19T03:15:17.673Z,2.45
2024-02-19T03:17:21.761Z,3.65
2024-02-19T03:19:24.508Z,3.67
2024-02-19T03:21:26.633Z,2.65
2024-02-19T03:23:29.557Z,3.10
2024-02-19T03:25:31.907Z,4.22
2024-02-19T03:27:34.569Z,3.80
2024-02-19T03:29:37.325Z,3.47
2024-02-19T03:31:38.945Z,3.47
2024-02-19T03:33:43.465Z,3.78
2024-02-19T03:35:46.315Z,3.78
2024-02-19T03:37:47.904Z,2.90
2024-02-19T03:39:50.561Z,3.53
2024-02-19T03:41:53.462Z,3.67
2024-02-19T03:43:56.269Z,4.75
2024-02-19T03:45:58.971Z,3.67
2024-02-19T03:48:01.821Z,3.75
2024-02-19T03:50:06.373Z,4.03
2024-02-19T03:52:09.067Z,4.05
2024-02-19T03:54:14.189Z,4.68
2024-02-19T03:56:18.008Z,3.88
2024-02-19T03:58:22.333Z,4.95
2024-02-19T04:00:25.120Z,3.40
2024-02-19T04:02:28.427Z,3.72
2024-02-19T04:04:31.297Z,3.80
2024-02-19T04:06:35.487Z,2.80
2024-02-19T04:08:39.367Z,3.30
2024-02-19T04:10:41.998Z,3.70
2024-02-19T04:12:44.829Z,4.95
2024-02-19T04:14:47.772Z,3.45
2024-02-19T04:16:50.481Z,4.47
2024-02-19T04:18:53.257Z,3.78
2024-02-19T04:20:56.028Z,4.10
2024-02-19T04:23:00.008Z,4.72
2024-02-19T04:25:01.991Z,4.63
2024-02-19T04:27:04.951Z,3.15
2024-02-19T04:29:07.569Z,4.13
2024-02-19T04:31:10.358Z,4.32
2024-02-19T04:33:13.446Z,4.57
2024-02-19T04:35:16.127Z,3.53
2024-02-19T04:37:18.883Z,4.13
2024-02-19T04:39:22.954Z,4.95
2024-02-19T04:41:24.586Z,4.55
2024-02-19T04:43:27.302Z,5.28
2024-02-19T04:45:29.841Z,5.45
2024-02-19T04:47:32.531Z,4.43
2024-02-19T04:49:35.434Z,5.03
2024-02-19T04:51:38.183Z,4.90
2024-02-19T04:53:40.902Z,5.43
2024-02-19T04:55:45.265Z,5.07
2024-02-19T04:57:47.935Z,4.47
2024-02-19T04:59:50.553Z,4.28
2024-02-19T05:01:54.886Z,5.13
2024-02-19T05:03:58.041Z,6.18
2024-02-19T05:06:00.949Z,4.43
2024-02-19T05:08:04.259Z,5.15
2024-02-19T05:10:08.297Z,3.95
2024-02-19T05:12:12.315Z,4.75
2024-02-19T05:14:14.958Z,4.15
2024-02-19T05:16:18.134Z,6.05
2024-02-19T05:18:20.995Z,5.35
2024-02-19T05:20:24.749Z,5.60
2024-02-19T05:22:27.601Z,6.15
2024-02-19T05:24:30.353Z,6.32
2024-02-19T05:26:33.009Z,5.60
2024-02-19T05:28:37.805Z,5.35
2024-02-19T05:30:40.568Z,5.57
2024-02-19T05:32:43.228Z,5.20
2024-02-19T05:34:45.916Z,5.60
2024-02-19T05:36:48.885Z,5.28
2024-02-19T05:38:51.881Z,5.80
2024-02-19T05:40:54.605Z,4.97
2024-02-19T05:42:57.280Z,4.72
2024-02-19T05:45:01.237Z,6.13
2024-02-19T05:47:03.985Z,6.20
2024-02-19T05:49:06.739Z,6.32
2024-02-19T05:51:08.621Z,5.38
2024-02-19T05:53:11.526Z,4.28
2024-02-19T05:55:14.425Z,6.07
2024-02-19T05:57:17.208Z,6.68
2024-02-19T05:59:19.878Z,5.35
2024-02-19T06:01:24.308Z,5.60
2024-02-19T06:03:27.317Z,5.45
2024-02-19T06:05:30.810Z,4.30
2024-02-19T06:07:33.452Z,5.47
2024-02-19T06:09:36.151Z,4.45
2024-02-19T06:11:42.484Z,5.95
2024-02-19T06:13:45.110Z,5.15
2024-02-19T06:15:48.002Z,5.75
2024-02-19T06:17:51.193Z,5.65
2024-02-19T06:19:53.852Z,5.72
2024-02-19T06:21:56.689Z,5.88
2024-02-19T06:23:59.314Z,5.47
2024-02-19T06:26:01.952Z,3.40
2024-02-19T06:28:05.308Z,6.03
2024-02-19T06:30:07.626Z,6.20
2024-02-19T06:32:10.184Z,5.40
2024-02-19T06:34:14.336Z,4.63
2024-02-19T06:36:17.028Z,4.90
2024-02-19T06:38:19.635Z,5.70
2024-02-19T06:40:22.898Z,6.15
2024-02-19T06:42:25.686Z,6.35
2024-02-19T06:44:28.323Z,5.15
2024-02-19T06:46:31.049Z,5.07
2024-02-19T06:48:33.707Z,6.45
2024-02-19T06:50:37.778Z,6.57
2024-02-19T06:52:44.350Z,6.95
2024-02-19T06:54:47.006Z,5.78
2024-02-19T06:56:49.666Z,5.45
2024-02-19T06:58:52.381Z,3.80
2024-02-19T07:00:55.266Z,6.05
2024-02-19T07:02:56.949Z,5.32
2024-02-19T07:05:02.457Z,4.93
2024-02-19T07:07:10.010Z,5.88
2024-02-19T07:09:12.759Z,5.07
2024-02-19T07:11:14.564Z,5.88
2024-02-19T07:13:17.285Z,4.88
2024-02-19T07:15:19.926Z,5.60
2024-02-19T07:17:22.924Z,6.72
2024-02-19T07:19:25.734Z,5.35
2024-02-19T07:21:28.379Z,4.75
2024-02-19T07:23:32.342Z,5.70
2024-02-19T07:25:35.056Z,5.40
2024-02-19T07:27:37.666Z,4.80
2024-02-19T07:29:39.241Z,5.38
2024-02-19T07:31:44.063Z,6.78
2024-02-19T07:33:46.956Z,5.13
2024-02-19T07:35:50.988Z,5.65
2024-02-19T07:37:53.816Z,5.65
2024-02-19T07:39:57.757Z,5.57
2024-02-19T07:42:01.168Z,5.32
2024-02-19T07:44:03.792Z,7.25
2024-02-19T07:46:06.459Z,4.78
2024-02-19T07:48:09.527Z,5.80
2024-02-19T07:50:12.511Z,5.15
2024-02-19T07:52:15.259Z,4.68
2024-02-19T07:54:18.231Z,6.40
2024-02-19T07:56:22.146Z,4.80
2024-02-19T07:58:24.888Z,5.68
2024-02-19T08:00:27.656Z,4.78
2024-02-19T08:02:30.428Z,4.13
2024-02-19T08:04:33.176Z,6.38
2024-02-19T08:06:36.046Z,5.38
2024-02-19T08:08:37.771Z,7.43
2024-02-19T08:10:40.713Z,5.35
2024-02-19T08:12:45.002Z,4.63
2024-02-19T08:14:47.123Z,4.97
2024-02-19T08:16:50.198Z,6.97
2024-02-19T08:18:53.613Z,7.60
2024-02-19T08:20:56.526Z,5.57
2024-02-19T08:22:59.710Z,4.43
2024-02-19T08:25:02.368Z,4.00
2024-02-19T08:27:05.270Z,4.50
2024-02-19T08:29:09.282Z,6.20
2024-02-19T08:31:11.942Z,4.95
2024-02-19T08:33:14.578Z,5.55
2024-02-19T08:35:17.542Z,5.68
2024-02-19T08:37:20.646Z,4.32
2024-02-19T08:39:23.326Z,5.68
2024-02-19T08:41:25.949Z,5.35
2024-02-19T08:43:28.818Z,5.00
2024-02-19T08:45:37.172Z,4.50
2024-02-19T08:47:40.423Z,5.75
2024-02-19T08:49:43.654Z,4.40
2024-02-19T08:51:46.580Z,4.18
2024-02-19T08:53:53.946Z,5.00
2024-02-19T08:56:02.207Z,3.83
2024-02-19T08:58:04.926Z,4.75
2024-02-19T09:00:08.465Z,6.38
2024-02-19T09:02:13.108Z,4.45
2024-02-19T09:04:15.851Z,3.08
2024-02-19T09:06:18.546Z,5.40
2024-02-19T09:08:21.187Z,3.85
2024-02-19T09:10:24.069Z,4.43
2024-02-19T09:12:27.840Z,4.15
2024-02-19T09:14:30.833Z,4.78
2024-02-19T09:16:33.727Z,3.90
2024-02-19T09:18:38.045Z,4.03
2024-02-19T09:20:40.959Z,7.80
2024-02-19T09:22:44.080Z,4.03
2024-02-19T09:24:49.422Z,4.72
2024-02-19T09:26:53.308Z,4.60
2024-02-19T09:28:55.921Z,3.47
2024-02-19T09:30:58.559Z,4.65
2024-02-19T09:33:01.314Z,3.60
2024-02-19T09:35:06.660Z,3.22
2024-02-19T09:37:09.373Z,4.47
2024-02-19T09:39:13.108Z,3.67
2024-02-19T09:41:15.892Z,3.63
2024-02-19T09:43:18.982Z,3.97
2024-02-19T09:45:22.378Z,3.80
2024-02-19T09:47:25.695Z,2.63
2024-02-19T09:49:29.646Z,4.00
2024-02-19T09:51:40.884Z,3.00
2024-02-19T09:53:45.217Z,3.35
2024-02-19T09:55:47.870Z,3.97
2024-02-19T09:57:50.663Z,3.22
2024-02-19T09:59:53.363Z,3.70
2024-02-19T10:01:56.210Z,4.07
2024-02-19T10:03:59.299Z,3.45
2024-02-19T10:06:03.585Z,2.95
2024-02-19T10:08:14.033Z,1.92
2024-02-19T10:10:17.308Z,4.30
2024-02-19T10:12:20.763Z,3.92
2024-02-19T10:14:23.610Z,3.05
2024-02-19T10:16:25.269Z,2.55
2024-02-19T10:18:27.997Z,4.22
2024-02-19T10:20:29.783Z,3.13
2024-02-19T10:22:32.364Z,4.43
2024-02-19T10:24:36.264Z,3.03
2024-02-19T10:26:38.932Z,2.67
2024-02-19T10:28:41.580Z,3.28
2024-02-19T10:30:44.533Z,2.78
2024-02-19T10:32:47.876Z,2.95
2024-02-19T10:34:50.829Z,3.22
2024-02-19T10:36:53.696Z,3.13
2024-02-19T10:38:56.319Z,3.30
2024-02-19T10:40:59.463Z,3.25
2024-02-19T10:43:02.345Z,3.28
2024-02-19T10:45:05.512Z,2.42
2024-02-19T10:47:09.636Z,2.53
2024-02-19T10:49:13.957Z,3.45
2024-02-19T10:51:18.979Z,1.77
2024-02-19T10:53:23.931Z,3.47
2024-02-19T10:55:37.504Z,3.00
2024-02-19T10:57:53.500Z,2.97
2024-02-19T11:00:08.845Z,4.85
2024-02-19T11:02:13.967Z,3.05
2024-02-19T11:04:20.877Z,3.83
2024-02-19T11:06:25.021Z,4.22
2024-02-19T11:08:29.242Z,3.47
2024-02-19T11:10:50.109Z,2.38
2024-02-19T11:12:54.307Z,2.42
2024-02-19T11:14:57.062Z,2.45
2024-02-19T11:16:59.662Z,3.20
2024-02-19T11:19:03.644Z,2.60
2024-02-19T11:21:08.162Z,2.05
2024-02-19T11:23:11.489Z,2.20
2024-02-19T11:25:14.282Z,3.20
2024-02-19T11:27:17.184Z,1.63
2024-02-19T11:29:25.301Z,2.63
2024-02-19T11:31:30.781Z,4.55
2024-02-19T11:33:33.521Z,1.75
2024-02-19T11:35:36.991Z,1.98
2024-02-19T11:37:39.734Z,2.45
2024-02-19T11:39:43.688Z,1.40
2024-02-19T11:41:46.698Z,1.98
2024-02-19T11:43:49.612Z,1.65
2024-02-19T11:45:53.917Z,2.40
2024-02-19T11:47:56.950Z,2.13
2024-02-19T11:49:59.693Z,2.03
2024-02-19T11:52:08.305Z,2.55
2024-02-19T11:54:16.592Z,1.95
2024-02-19T11:56:21.063Z,2.75
2024-02-19T11:58:28.769Z,1.30
2024-02-19T12:00:32.428Z,2.20
2024-02-19T12:02:44.853Z,2.08
2024-02-19T12:04:52.813Z,1.38
2024-02-19T12:06:55.993Z,1.45
2024-02-19T12:08:58.776Z,1.63
2024-02-19T12:11:01.781Z,1.58
2024-02-19T12:13:04.540Z,0.93
2024-02-19T12:15:09.828Z,3.28
2024-02-19T12:17:12.465Z,1.45
2024-02-19T12:19:16.453Z,1.55
2024-02-19T12:21:19.284Z,1.23
2024-02-19T12:23:22.283Z,2.22
2024-02-19T12:25:26.759Z,1.40
2024-02-19T12:27:29.460Z,1.70
2024-02-19T12:29:32.019Z,1.75
2024-02-19T12:31:34.746Z,1.80
2024-02-19T12:33:39.727Z,1.95
2024-02-19T12:35:48.438Z,2.80
2024-02-19T12:37:51.264Z,3.85
2024-02-19T12:39:54.004Z,1.77
2024-02-19T12:41:56.629Z,2.95
2024-02-19T12:43:59.296Z,3.42
2024-02-19T12:46:02.361Z,2.38
2024-02-19T12:48:07.286Z,2.03
2024-02-19T12:50:10.783Z,2.10
2024-02-19T12:52:15.382Z,2.40
2024-02-19T12:54:19.645Z,3.08
2024-02-19T12:56:22.773Z,3.25
2024-02-19T12:58:25.868Z,1.90
2024-02-19T13:00:28.611Z,3.10
2024-02-19T13:02:31.903Z,4.72
2024-02-19T13:04:34.746Z,3.35
2024-02-19T13:06:37.727Z,3.33
2024-02-19T13:08:41.942Z,4.13
2024-02-19T13:10:44.549Z,2.75
2024-02-19T13:12:47.365Z,3.17
2024-02-19T13:14:48.967Z,3.08
2024-02-19T13:17:02.066Z,3.60
2024-02-19T13:19:09.888Z,4.32
2024-02-19T13:21:12.700Z,3.53
2024-02-19T13:23:15.345Z,2.75
2024-02-19T13:25:19.513Z,2.78
2024-02-19T13:27:23.013Z,3.95
2024-02-19T13:29:25.731Z,3.10
2024-02-19T13:31:28.525Z,3.50
2024-02-19T13:33:31.561Z,3.63
2024-02-19T13:35:34.500Z,3.60
2024-02-19T13:37:37.287Z,3.40
2024-02-19T13:39:40.577Z,3.50
2024-02-19T13:41:44.922Z,3.42
2024-02-19T13:43:47.863Z,4.13
2024-02-19T13:45:58.691Z,4.20
2024-02-19T13:48:02.212Z,4.55
2024-02-19T13:50:06.219Z,3.85
2024-02-19T13:52:09.141Z,4.03
2024-02-19T13:54:11.828Z,5.40
2024-02-19T13:56:13.504Z,4.82
2024-02-19T13:58:17.998Z,3.38
2024-02-19T14:00:21.100Z,3.75
2024-02-19T14:02:23.888Z,4.13
2024-02-19T14:04:26.847Z,4.45
2024-02-19T14:06:29.648Z,4.88
2024-02-19T14:08:32.507Z,4.80
2024-02-19T14:10:35.719Z,6.10
2024-02-19T14:12:38.497Z,5.85
2024-02-19T14:14:42.487Z,6.68
2024-02-19T14:16:45.184Z,3.63
2024-02-19T14:18:48.026Z,4.47
2024-02-19T14:20:50.921Z,6.50
2024-02-19T14:22:54.168Z,4.45
2024-02-19T14:24:57.259Z,5.80
2024-02-19T14:26:59.910Z,4.30
2024-02-19T14:29:06.894Z,5.43
2024-02-19T14:31:10.998Z,5.18
2024-02-19T14:33:13.957Z,5.40
2024-02-19T14:35:16.904Z,5.28
2024-02-19T14:37:19.890Z,3.75
2024-02-19T14:39:23.472Z,5.25
2024-02-19T14:41:26.035Z,3.42
2024-02-19T14:43:28.865Z,4.28
2024-02-19T14:45:31.515Z,4.57
2024-02-19T14:47:37.905Z,5.30
2024-02-19T14:49:41.082Z,4.78
2024-02-19T14:51:44.466Z,3.88
2024-02-19T14:53:48.105Z,5.07
2024-02-19T14:55:49.746Z,3.80
2024-02-19T14:57:52.488Z,4.20
2024-02-19T14:59:55.334Z,4.68
2024-02-19T15:01:58.078Z,2.85
2024-02-19T15:04:02.305Z,5.28
2024-02-19T15:06:06.990Z,4.38
2024-02-19T15:08:10.326Z,3.63
2024-02-19T15:10:15.325Z,3.60
2024-02-19T15:12:18.178Z,4.28
2024-02-19T15:14:21.733Z,4.53
2024-02-19T15:16:24.463Z,3.22
2024-02-19T15:18:27.282Z,5.55
2024-02-19T15:20:31.438Z,3.72
2024-02-19T15:22:34.167Z,3.10
2024-02-19T15:24:36.843Z,5.18
2024-02-19T15:26:40.282Z,3.80
2024-02-19T15:28:43.408Z,4.18
2024-02-19T15:30:46.618Z,4.35
2024-02-19T15:32:50.034Z,5.88
2024-02-19T15:34:52.984Z,3.75
2024-02-19T15:36:57.232Z,4.63
2024-02-19T15:38:59.915Z,5.50
2024-02-19T15:41:05.292Z,3.30
2024-02-19T15:43:08.054Z,3.47
2024-02-19T15:45:11.252Z,3.42
2024-02-19T15:47:14.065Z,3.28
2024-02-19T15:49:16.879Z,4.50
2024-02-19T15:51:19.758Z,4.15
2024-02-19T15:53:28.637Z,6.50
2024-02-19T15:55:32.276Z,4.28
2024-02-19T15:57:35.003Z,3.70
2024-02-19T15:59:37.696Z,4.15
2024-02-19T16:01:39.549Z,4.00
2024-02-19T16:03:42.180Z,3.42
2024-02-19T16:05:45.262Z,3.05
2024-02-19T16:07:48.075Z,5.22
2024-02-19T16:09:52.280Z,4.97
2024-02-19T16:11:55.230Z,3.65
2024-02-19T16:13:58.928Z,3.80
2024-02-19T16:16:03.585Z,3.13
2024-02-19T16:18:09.741Z,4.13
2024-02-19T16:20:13.032Z,4.13
2024-02-19T16:22:17.433Z,4.60
2024-02-19T16:24:20.032Z,5.03
2024-02-19T16:26:24.082Z,4.30
2024-02-19T16:28:26.786Z,4.10
2024-02-19T16:30:31.208Z,5.70
2024-02-19T16:32:34.517Z,3.78
2024-02-19T16:34:37.450Z,4.43
2024-02-19T16:36:40.463Z,3.97
2024-02-19T16:38:44.142Z,5.60
2024-02-19T16:40:47.771Z,3.55
2024-02-19T16:42:51.941Z,5.13
2024-02-19T16:44:54.855Z,4.65
2024-02-19T16:46:57.610Z,4.03
2024-02-19T16:49:00.288Z,4.95
2024-02-19T16:51:02.032Z,3.90
2024-02-19T16:53:04.822Z,5.35
2024-02-19T16:55:08.371Z,4.85
2024-02-19T16:57:10.977Z,3.70
2024-02-19T16:59:15.226Z,5.10
2024-02-19T17:01:19.281Z,3.85
2024-02-19T17:03:22.139Z,4.43
2024-02-19T17:05:25.008Z,4.72
2024-02-19T17:07:29.489Z,4.97
2024-02-19T17:09:32.329Z,3.10
2024-02-19T17:11:35.727Z,3.40
2024-02-19T17:13:37.871Z,3.25
2024-02-19T17:15:42.042Z,4.00
2024-02-19T17:17:44.990Z,5.72
2024-02-19T17:19:48.097Z,3.22
2024-02-19T17:21:50.996Z,5.03
2024-02-19T17:23:53.654Z,4.80
2024-02-19T17:25:56.490Z,4.13
2024-02-19T17:27:59.182Z,5.03
2024-02-19T17:30:01.961Z,3.67
2024-02-19T17:32:06.942Z,4.28
2024-02-19T17:34:09.644Z,4.38
2024-02-19T17:36:12.947Z,4.72
2024-02-19T17:38:16.041Z,3.97
2024-02-19T17:40:20.105Z,3.58
2024-02-19T17:42:24.196Z,4.25
2024-02-19T17:44:25.845Z,5.03
2024-02-19T17:46:29.555Z,4.13
2024-02-19T17:48:35.298Z,4.60
2024-02-19T17:50:41.933Z,5.00
2024-02-19T17:52:47.036Z,4.45
2024-02-19T17:54:52.180Z,4.30
2024-02-19T17:56:54.850Z,3.55
2024-02-19T17:58:57.508Z,3.13
2024-02-19T18:01:01.047Z,4.03
2024-02-19T18:03:04.178Z,4.97
2024-02-19T18:05:08.646Z,3.22
2024-02-19T18:07:11.322Z,4.93
2024-02-19T18:09:14.270Z,3.30
2024-02-19T18:11:18.170Z,3.30
2024-02-19T18:13:22.814Z,3.25
2024-02-19T18:15:27.198Z,3.03
2024-02-19T18:17:29.885Z,3.83
2024-02-19T18:19:32.907Z,3.22
2024-02-19T18:21:37.039Z,3.15
2024-02-19T18:23:40.148Z,4.07
2024-02-19T18:25:43.025Z,3.05
2024-02-19T18:27:45.937Z,3.97
2024-02-19T18:29:48.611Z,3.75
2024-02-19T18:31:56.603Z,3.75
2024-02-19T18:33:59.406Z,2.80
2024-02-19T18:36:01.115Z,4.15
2024-02-19T18:38:06.254Z,3.88
2024-02-19T18:40:09.750Z,3.80
2024-02-19T18:42:15.433Z,3.42
2024-02-19T18:44:18.111Z,4.18
2024-02-19T18:46:22.300Z,4.63
2024-02-19T18:48:26.167Z,3.60
2024-02-19T18:50:28.859Z,2.83
2024-02-19T18:52:32.983Z,3.70
2024-02-19T18:54:37.003Z,3.60
2024-02-19T18:56:39.723Z,3.10
2024-02-19T18:58:42.324Z,3.00
2024-02-19T19:00:45.473Z,3.25
2024-02-19T19:02:48.147Z,3.17
2024-02-19T19:04:50.811Z,3.60
2024-02-19T19:06:53.435Z,3.03
2024-02-19T19:08:59.733Z,3.25
2024-02-19T19:11:05.177Z,2.80
2024-02-19T19:13:08.036Z,2.95
2024-02-19T19:15:11.004Z,2.17
2024-02-19T19:17:14.023Z,3.33
2024-02-19T19:19:16.785Z,2.83
2024-02-19T19:21:20.047Z,3.85
2024-02-19T19:23:23.630Z,2.65
2024-02-19T19:25:26.522Z,3.08
2024-02-19T19:27:30.932Z,3.55
2024-02-19T19:29:33.643Z,2.75
2024-02-19T19:31:36.672Z,2.95
2024-02-19T19:33:39.542Z,2.83
2024-02-19T19:35:44.763Z,3.30
2024-02-19T19:37:48.513Z,2.42
2024-02-19T19:39:51.549Z,2.88
2024-02-19T19:41:54.241Z,2.67
2024-02-19T19:43:58.258Z,2.72
2024-02-19T19:46:01.018Z,3.90
2024-02-19T19:48:04.015Z,2.30
2024-02-19T19:50:08.804Z,3.83
2024-02-19T19:52:11.756Z,2.58
2024-02-19T19:54:14.972Z,2.90
2024-02-19T19:56:18.567Z,3.25
2024-02-19T19:58:28.638Z,2.88
2024-02-19T20:00:36.454Z,2.00
2024-02-19T20:02:41.620Z,3.38
2024-02-19T20:04:44.770Z,2.95
2024-02-19T20:06:47.593Z,2.55
2024-02-19T20:08:51.308Z,3.25
2024-02-19T20:10:54.687Z,2.85
2024-02-19T20:12:57.883Z,2.28
2024-02-19T20:15:00.486Z,4.38
2024-02-19T20:17:04.549Z,3.05
2024-02-19T20:19:07.213Z,2.78
2024-02-19T20:21:09.953Z,2.97
2024-02-19T20:23:12.786Z,2.42
2024-02-19T20:25:14.804Z,2.47
2024-02-19T20:27:17.388Z,2.10
2024-02-19T20:29:20.405Z,3.60
2024-02-19T20:31:23.221Z,3.00
2024-02-19T20:33:26.349Z,3.10
2024-02-19T20:35:30.311Z,1.95
2024-02-19T20:37:33.338Z,3.42
2024-02-19T20:39:36.339Z,3.03
2024-02-19T20:41:42.471Z,2.42
2024-02-19T20:43:45.102Z,2.60
2024-02-19T20:45:49.075Z,3.67
2024-02-19T20:47:51.727Z,3.17
2024-02-19T20:49:57.446Z,3.45
2024-02-19T20:52:00.169Z,2.33
2024-02-19T20:54:02.822Z,3.75
2024-02-19T20:56:05.643Z,3.97
2024-02-19T20:58:08.269Z,3.40
2024-02-19T21:00:11.346Z,3.22
2024-02-19T21:02:14.056Z,4.00
2024-02-19T21:04:16.793Z,2.85
2024-02-19T21:06:19.882Z,3.15
2024-02-19T21:08:22.683Z,3.92
2024-02-19T21:10:25.409Z,3.40
2024-02-19T21:12:28.208Z,3.53
2024-02-19T21:14:30.894Z,2.88
2024-02-19T21:16:33.632Z,4.85
2024-02-19T21:18:46.318Z,3.20
2024-02-19T21:20:50.393Z,3.63
2024-02-19T21:22:54.461Z,2.90
2024-02-19T21:24:57.743Z,3.78
2024-02-19T21:27:02.055Z,4.93
2024-02-19T21:29:05.533Z,4.55
2024-02-19T21:31:08.177Z,4.90
2024-02-19T21:33:10.853Z,3.47
2024-02-19T21:35:14.216Z,3.10
2024-02-19T21:37:17.244Z,3.50
2024-02-19T21:39:20.690Z,4.25
2024-02-19T21:41:23.370Z,4.38
2024-02-19T21:43:27.286Z,3.55
2024-02-19T21:45:30.003Z,3.17
2024-02-19T21:47:32.931Z,3.03
2024-02-19T21:49:35.633Z,3.72
2024-02-19T21:51:41.028Z,4.60
2024-02-19T21:53:43.580Z,3.03
2024-02-19T21:55:47.642Z,3.97
2024-02-19T21:57:50.210Z,4.93
2024-02-19T21:59:54.235Z,4.47
2024-02-19T22:01:57.199Z,4.22
2024-02-19T22:04:00.938Z,3.42
2024-02-19T22:06:05.074Z,5.32
2024-02-19T22:08:08.308Z,3.80
2024-02-19T22:10:11.312Z,4.32
2024-02-19T22:12:15.365Z,3.63
2024-02-19T22:14:17.983Z,5.30
2024-02-19T22:16:19.622Z,4.65
2024-02-19T22:18:23.285Z,5.75
2024-02-19T22:20:25.892Z,3.90
2024-02-19T22:22:29.555Z,4.60
2024-02-19T22:24:32.308Z,4.50
2024-02-19T22:26:34.842Z,4.68
2024-02-19T22:28:38.810Z,4.07
2024-02-19T22:30:41.417Z,4.32
2024-02-19T22:32:44.178Z,4.65
2024-02-19T22:34:46.576Z,4.18
2024-02-19T22:36:49.388Z,5.05
2024-02-19T22:38:51.951Z,4.18
2024-02-19T22:40:54.628Z,3.90
2024-02-19T22:42:57.922Z,4.53
2024-02-19T22:45:02.054Z,4.82
2024-02-19T22:47:05.018Z,3.72
2024-02-19T22:49:07.745Z,5.30
2024-02-19T22:51:10.466Z,3.55
2024-02-19T22:53:13.674Z,3.80
2024-02-19T22:55:16.703Z,4.55
2024-02-19T22:57:18.961Z,4.07
2024-02-19T22:59:22.882Z,4.30
2024-02-19T23:01:27.528Z,5.57
2024-02-19T23:03:30.440Z,3.83
2024-02-19T23:05:32.852Z,4.50
2024-02-19T23:07:35.777Z,4.40
2024-02-19T23:09:38.402Z,4.82
2024-02-19T23:11:41.103Z,5.93
2024-02-19T23:13:43.735Z,4.60
2024-02-19T23:15:45.484Z,3.72
2024-02-19T23:17:49.657Z,4.18
2024-02-19T23:19:52.404Z,4.60
2024-02-19T23:21:54.043Z,4.07
2024-02-19T23:23:56.656Z,4.55
2024-02-19T23:26:00.761Z,5.63
2024-02-19T23:28:03.686Z,4.90
2024-02-19T23:30:08.646Z,4.25
2024-02-19T23:32:11.473Z,5.22
2024-02-19T23:34:15.577Z,3.97
2024-02-19T23:36:19.024Z,4.18
2024-02-19T23:38:23.452Z,3.95
2024-02-19T23:40:26.272Z,5.03
2024-02-19T23:42:28.037Z,4.75
2024-02-19T23:44:30.642Z,4.47
2024-02-19T23:46:33.986Z,4.22
2024-02-19T23:48:37.521Z,6.88
2024-02-19T23:50:41.509Z,4.28
2024-02-19T23:52:45.235Z,5.63
2024-02-19T23:54:47.984Z,7.07
2024-02-19T23:56:49.614Z,4.90
2024-02-19T23:58:52.191Z,3.80
